sensor_id;sensor_type;location;lat;lon;timestamp;P1;durP1;ratioP1;P2;durP2;ratioP2
7383;SDS011;3733;47.994;8.820;2022-12-08T00:01:37;14.13;;;8.50;;
7383;SDS011;3733;47.994;8.820;2022-12-08T00:04:03;12.87;;;7.70;;
7383;SDS011;3733;47.994;8.820;2022-12-08T00:06:33;17.13;;;7.70;;
7383;SDS011;3733;47.994;8.820;2022-12-08T00:09:24;12.60;;;8.30;;
7383;SDS011;3733;47.994;8.820;2022-12-08T00:14:27;13.37;;;6.93;;
7383;SDS011;3733;47.994;8.820;2022-12-08T00:16:55;14.20;;;7.87;;
7383;SDS011;3733;47.994;8.820;2022-12-08T00:19:22;17.90;;;9.70;;
7383;SDS011;3733;47.994;8.820;2022-12-08T00:21:48;17.20;;;8.17;;
7383;SDS011;3733;47.994;8.820;2022-12-08T00:24:14;17.20;;;8.63;;
7383;SDS011;3733;47.994;8.820;2022-12-08T00:26:39;17.30;;;8.63;;
7383;SDS011;3733;47.994;8.820;2022-12-08T00:29:05;13.37;;;8.90;;
7383;SDS011;3733;47.994;8.820;2022-12-08T00:31:31;16.80;;;8.87;;
7383;SDS011;3733;47.994;8.820;2022-12-08T00:33:57;22.07;;;9.40;;
7383;SDS011;3733;47.994;8.820;2022-12-08T00:36:23;18.07;;;8.90;;
7383;SDS011;3733;47.994;8.820;2022-12-08T00:38:48;16.37;;;8.90;;
7383;SDS011;3733;47.994;8.820;2022-12-08T00:41:15;18.20;;;8.77;;
7383;SDS011;3733;47.994;8.820;2022-12-08T00:43:43;15.37;;;8.93;;
7383;SDS011;3733;47.994;8.820;2022-12-08T00:46:09;14.50;;;9.27;;
7383;SDS011;3733;47.994;8.820;2022-12-08T00:48:35;17.70;;;9.50;;
7383;SDS011;3733;47.994;8.820;2022-12-08T00:51:01;15.33;;;8.90;;
7383;SDS011;3733;47.994;8.820;2022-12-08T00:53:27;11.87;;;8.47;;
7383;SDS011;3733;47.994;8.820;2022-12-08T00:55:54;16.43;;;10.00;;
7383;SDS011;3733;47.994;8.820;2022-12-08T00:58:19;16.37;;;9.07;;
7383;SDS011;3733;47.994;8.820;2022-12-08T01:00:45;15.50;;;7.67;;
7383;SDS011;3733;47.994;8.820;2022-12-08T01:03:11;13.17;;;7.90;;
7383;SDS011;3733;47.994;8.820;2022-12-08T01:05:37;10.87;;;7.20;;
7383;SDS011;3733;47.994;8.820;2022-12-08T01:08:07;8.63;;;6.07;;
7383;SDS011;3733;47.994;8.820;2022-12-08T01:10:36;11.70;;;7.13;;
7383;SDS011;3733;47.994;8.820;2022-12-08T01:13:03;14.93;;;6.57;;
7383;SDS011;3733;47.994;8.820;2022-12-08T01:15:29;12.80;;;6.60;;
7383;SDS011;3733;47.994;8.820;2022-12-08T01:17:55;8.93;;;6.50;;
7383;SDS011;3733;47.994;8.820;2022-12-08T01:20:20;12.47;;;7.00;;
7383;SDS011;3733;47.994;8.820;2022-12-08T01:22:46;9.40;;;6.17;;
7383;SDS011;3733;47.994;8.820;2022-12-08T01:25:12;13.43;;;8.10;;
7383;SDS011;3733;47.994;8.820;2022-12-08T01:27:37;11.07;;;6.97;;
7383;SDS011;3733;47.994;8.820;2022-12-08T01:30:03;11.93;;;6.33;;
7383;SDS011;3733;47.994;8.820;2022-12-08T01:32:29;8.67;;;5.40;;
7383;SDS011;3733;47.994;8.820;2022-12-08T01:34:55;9.10;;;6.07;;
7383;SDS011;3733;47.994;8.820;2022-12-08T01:37:21;9.87;;;6.17;;
7383;SDS011;3733;47.994;8.820;2022-12-08T01:39:46;13.17;;;6.83;;
7383;SDS011;3733;47.994;8.820;2022-12-08T01:42:18;12.10;;;6.43;;
7383;SDS011;3733;47.994;8.820;2022-12-08T01:44:51;11.73;;;5.97;;
7383;SDS011;3733;47.994;8.820;2022-12-08T01:47:19;12.17;;;6.10;;
7383;SDS011;3733;47.994;8.820;2022-12-08T01:49:46;8.87;;;5.63;;
7383;SDS011;3733;47.994;8.820;2022-12-08T01:52:26;8.93;;;5.77;;
7383;SDS011;3733;47.994;8.820;2022-12-08T01:55:02;10.57;;;6.13;;
7383;SDS011;3733;47.994;8.820;2022-12-08T01:57:55;10.10;;;5.73;;
7383;SDS011;3733;47.994;8.820;2022-12-08T02:00:40;8.67;;;5.83;;
7383;SDS011;3733;47.994;8.820;2022-12-08T02:03:08;13.30;;;7.87;;
7383;SDS011;3733;47.994;8.820;2022-12-08T02:05:39;19.93;;;8.13;;
7383;SDS011;3733;47.994;8.820;2022-12-08T02:08:07;15.53;;;7.70;;
7383;SDS011;3733;47.994;8.820;2022-12-08T02:10:36;13.50;;;7.60;;
7383;SDS011;3733;47.994;8.820;2022-12-08T02:13:03;13.63;;;7.30;;
7383;SDS011;3733;47.994;8.820;2022-12-08T02:15:36;11.80;;;6.60;;
7383;SDS011;3733;47.994;8.820;2022-12-08T02:21:09;7.90;;;5.50;;
7383;SDS011;3733;47.994;8.820;2022-12-08T02:23:55;7.20;;;4.80;;
7383;SDS011;3733;47.994;8.820;2022-12-08T02:29:50;8.07;;;4.83;;
7383;SDS011;3733;47.994;8.820;2022-12-08T02:37:56;13.53;;;6.87;;
7383;SDS011;3733;47.994;8.820;2022-12-08T02:40:29;9.60;;;6.83;;
7383;SDS011;3733;47.994;8.820;2022-12-08T02:43:06;10.57;;;5.60;;
7383;SDS011;3733;47.994;8.820;2022-12-08T02:45:45;12.80;;;6.40;;
7383;SDS011;3733;47.994;8.820;2022-12-08T02:48:15;12.60;;;6.70;;
7383;SDS011;3733;47.994;8.820;2022-12-08T02:50:41;12.97;;;6.23;;
7383;SDS011;3733;47.994;8.820;2022-12-08T02:53:07;8.70;;;5.97;;
7383;SDS011;3733;47.994;8.820;2022-12-08T02:58:39;10.80;;;5.63;;
7383;SDS011;3733;47.994;8.820;2022-12-08T03:03:40;9.57;;;5.47;;
7383;SDS011;3733;47.994;8.820;2022-12-08T03:08:59;13.07;;;5.77;;
7383;SDS011;3733;47.994;8.820;2022-12-08T03:14:13;9.00;;;5.20;;
7383;SDS011;3733;47.994;8.820;2022-12-08T03:16:42;7.83;;;5.23;;
7383;SDS011;3733;47.994;8.820;2022-12-08T03:19:14;9.60;;;4.60;;
7383;SDS011;3733;47.994;8.820;2022-12-08T03:21:44;6.03;;;3.83;;
7383;SDS011;3733;47.994;8.820;2022-12-08T03:24:15;5.83;;;3.57;;
7383;SDS011;3733;47.994;8.820;2022-12-08T03:26:48;7.03;;;3.40;;
7383;SDS011;3733;47.994;8.820;2022-12-08T03:29:17;6.50;;;4.10;;
7383;SDS011;3733;47.994;8.820;2022-12-08T03:31:45;5.63;;;3.50;;
7383;SDS011;3733;47.994;8.820;2022-12-08T03:34:16;4.30;;;3.07;;
7383;SDS011;3733;47.994;8.820;2022-12-08T03:36:43;7.30;;;3.47;;
7383;SDS011;3733;47.994;8.820;2022-12-08T03:39:09;7.63;;;5.03;;
7383;SDS011;3733;47.994;8.820;2022-12-08T03:41:35;4.30;;;3.13;;
7383;SDS011;3733;47.994;8.820;2022-12-08T03:44:00;5.57;;;3.70;;
7383;SDS011;3733;47.994;8.820;2022-12-08T03:46:27;5.50;;;3.30;;
7383;SDS011;3733;47.994;8.820;2022-12-08T03:48:54;6.47;;;3.73;;
7383;SDS011;3733;47.994;8.820;2022-12-08T03:51:20;6.40;;;3.80;;
7383;SDS011;3733;47.994;8.820;2022-12-08T03:53:46;3.83;;;3.27;;
7383;SDS011;3733;47.994;8.820;2022-12-08T03:56:30;4.47;;;2.83;;
7383;SDS011;3733;47.994;8.820;2022-12-08T03:58:58;4.00;;;3.10;;
7383;SDS011;3733;47.994;8.820;2022-12-08T04:01:23;5.30;;;3.43;;
7383;SDS011;3733;47.994;8.820;2022-12-08T04:03:50;4.30;;;3.30;;
7383;SDS011;3733;47.994;8.820;2022-12-08T04:06:16;4.33;;;3.50;;
7383;SDS011;3733;47.994;8.820;2022-12-08T04:08:43;4.97;;;3.57;;
7383;SDS011;3733;47.994;8.820;2022-12-08T04:11:08;5.23;;;4.10;;
7383;SDS011;3733;47.994;8.820;2022-12-08T04:13:35;6.47;;;3.67;;
7383;SDS011;3733;47.994;8.820;2022-12-08T04:16:02;4.70;;;3.50;;
7383;SDS011;3733;47.994;8.820;2022-12-08T04:18:29;5.80;;;3.90;;
7383;SDS011;3733;47.994;8.820;2022-12-08T04:20:55;6.47;;;3.97;;
7383;SDS011;3733;47.994;8.820;2022-12-08T04:23:21;7.93;;;4.37;;
7383;SDS011;3733;47.994;8.820;2022-12-08T04:25:46;6.87;;;4.80;;
7383;SDS011;3733;47.994;8.820;2022-12-08T04:28:12;5.90;;;3.70;;
7383;SDS011;3733;47.994;8.820;2022-12-08T04:30:38;4.50;;;3.67;;
7383;SDS011;3733;47.994;8.820;2022-12-08T04:33:04;5.83;;;4.13;;
7383;SDS011;3733;47.994;8.820;2022-12-08T04:35:29;6.90;;;4.87;;
7383;SDS011;3733;47.994;8.820;2022-12-08T04:37:55;10.73;;;4.83;;
7383;SDS011;3733;47.994;8.820;2022-12-08T04:40:21;8.93;;;5.67;;
7383;SDS011;3733;47.994;8.820;2022-12-08T04:42:47;10.20;;;5.67;;
7383;SDS011;3733;47.994;8.820;2022-12-08T04:45:12;10.47;;;5.73;;
7383;SDS011;3733;47.994;8.820;2022-12-08T04:47:39;8.93;;;5.60;;
7383;SDS011;3733;47.994;8.820;2022-12-08T04:50:04;10.23;;;6.60;;
7383;SDS011;3733;47.994;8.820;2022-12-08T04:52:31;9.20;;;6.40;;
7383;SDS011;3733;47.994;8.820;2022-12-08T04:54:57;9.30;;;6.07;;
7383;SDS011;3733;47.994;8.820;2022-12-08T04:57:22;7.70;;;4.53;;
7383;SDS011;3733;47.994;8.820;2022-12-08T04:59:48;8.07;;;4.80;;
7383;SDS011;3733;47.994;8.820;2022-12-08T05:02:13;9.17;;;5.13;;
7383;SDS011;3733;47.994;8.820;2022-12-08T05:04:39;7.33;;;5.50;;
7383;SDS011;3733;47.994;8.820;2022-12-08T05:07:05;11.70;;;4.83;;
7383;SDS011;3733;47.994;8.820;2022-12-08T05:09:31;7.87;;;5.60;;
7383;SDS011;3733;47.994;8.820;2022-12-08T05:11:56;9.07;;;5.60;;
7383;SDS011;3733;47.994;8.820;2022-12-08T05:14:22;11.10;;;5.70;;
7383;SDS011;3733;47.994;8.820;2022-12-08T05:16:47;10.73;;;6.60;;
7383;SDS011;3733;47.994;8.820;2022-12-08T05:19:13;9.73;;;6.03;;
7383;SDS011;3733;47.994;8.820;2022-12-08T05:21:40;11.57;;;6.43;;
7383;SDS011;3733;47.994;8.820;2022-12-08T05:24:06;11.03;;;5.80;;
7383;SDS011;3733;47.994;8.820;2022-12-08T05:26:33;15.13;;;5.77;;
7383;SDS011;3733;47.994;8.820;2022-12-08T05:28:58;10.90;;;6.20;;
7383;SDS011;3733;47.994;8.820;2022-12-08T05:31:24;9.50;;;6.07;;
7383;SDS011;3733;47.994;8.820;2022-12-08T05:33:50;11.10;;;7.50;;
7383;SDS011;3733;47.994;8.820;2022-12-08T05:36:17;10.07;;;7.17;;
7383;SDS011;3733;47.994;8.820;2022-12-08T05:38:43;13.90;;;7.37;;
7383;SDS011;3733;47.994;8.820;2022-12-08T05:41:12;11.40;;;5.10;;
7383;SDS011;3733;47.994;8.820;2022-12-08T05:43:39;8.00;;;4.77;;
7383;SDS011;3733;47.994;8.820;2022-12-08T05:46:06;8.83;;;4.67;;
7383;SDS011;3733;47.994;8.820;2022-12-08T05:48:33;7.00;;;4.83;;
7383;SDS011;3733;47.994;8.820;2022-12-08T05:50:59;8.57;;;5.37;;
7383;SDS011;3733;47.994;8.820;2022-12-08T05:53:25;7.60;;;4.80;;
7383;SDS011;3733;47.994;8.820;2022-12-08T05:55:51;9.50;;;5.40;;
7383;SDS011;3733;47.994;8.820;2022-12-08T05:58:18;9.23;;;5.07;;
7383;SDS011;3733;47.994;8.820;2022-12-08T06:00:45;8.50;;;5.67;;
7383;SDS011;3733;47.994;8.820;2022-12-08T06:03:13;10.03;;;5.33;;
7383;SDS011;3733;47.994;8.820;2022-12-08T06:05:40;8.07;;;5.20;;
7383;SDS011;3733;47.994;8.820;2022-12-08T06:08:07;13.23;;;5.13;;
7383;SDS011;3733;47.994;8.820;2022-12-08T06:10:33;6.80;;;5.00;;
7383;SDS011;3733;47.994;8.820;2022-12-08T06:12:58;7.87;;;4.67;;
7383;SDS011;3733;47.994;8.820;2022-12-08T06:15:24;10.63;;;5.27;;
7383;SDS011;3733;47.994;8.820;2022-12-08T06:17:50;6.63;;;4.70;;
7383;SDS011;3733;47.994;8.820;2022-12-08T06:20:16;8.33;;;5.10;;
7383;SDS011;3733;47.994;8.820;2022-12-08T06:22:41;7.70;;;4.87;;
7383;SDS011;3733;47.994;8.820;2022-12-08T06:25:07;7.40;;;5.20;;
7383;SDS011;3733;47.994;8.820;2022-12-08T06:27:33;11.50;;;7.23;;
7383;SDS011;3733;47.994;8.820;2022-12-08T06:29:59;11.80;;;7.07;;
7383;SDS011;3733;47.994;8.820;2022-12-08T06:32:24;18.83;;;8.73;;
7383;SDS011;3733;47.994;8.820;2022-12-08T06:34:50;17.83;;;8.17;;
7383;SDS011;3733;47.994;8.820;2022-12-08T06:37:16;12.73;;;7.10;;
7383;SDS011;3733;47.994;8.820;2022-12-08T06:39:42;15.03;;;6.80;;
7383;SDS011;3733;47.994;8.820;2022-12-08T06:42:08;12.53;;;6.93;;
7383;SDS011;3733;47.994;8.820;2022-12-08T06:44:52;11.87;;;7.20;;
7383;SDS011;3733;47.994;8.820;2022-12-08T06:47:19;12.97;;;7.93;;
7383;SDS011;3733;47.994;8.820;2022-12-08T06:49:45;16.73;;;10.37;;
7383;SDS011;3733;47.994;8.820;2022-12-08T06:52:11;18.37;;;10.50;;
7383;SDS011;3733;47.994;8.820;2022-12-08T06:54:36;12.70;;;8.07;;
7383;SDS011;3733;47.994;8.820;2022-12-08T06:57:02;16.03;;;6.53;;
7383;SDS011;3733;47.994;8.820;2022-12-08T06:59:28;8.80;;;5.60;;
7383;SDS011;3733;47.994;8.820;2022-12-08T07:01:54;13.67;;;5.83;;
7383;SDS011;3733;47.994;8.820;2022-12-08T07:04:20;7.30;;;4.30;;
7383;SDS011;3733;47.994;8.820;2022-12-08T07:06:45;8.80;;;5.00;;
7383;SDS011;3733;47.994;8.820;2022-12-08T07:09:11;6.60;;;5.33;;
7383;SDS011;3733;47.994;8.820;2022-12-08T07:11:37;8.20;;;5.20;;
7383;SDS011;3733;47.994;8.820;2022-12-08T07:14:03;10.23;;;5.73;;
7383;SDS011;3733;47.994;8.820;2022-12-08T07:16:29;12.40;;;5.50;;
7383;SDS011;3733;47.994;8.820;2022-12-08T07:18:54;8.07;;;4.63;;
7383;SDS011;3733;47.994;8.820;2022-12-08T07:21:20;5.80;;;4.30;;
7383;SDS011;3733;47.994;8.820;2022-12-08T07:23:46;17.13;;;8.40;;
7383;SDS011;3733;47.994;8.820;2022-12-08T07:26:12;19.80;;;9.80;;
7383;SDS011;3733;47.994;8.820;2022-12-08T07:28:38;16.87;;;9.50;;
7383;SDS011;3733;47.994;8.820;2022-12-08T07:31:06;12.20;;;6.87;;
7383;SDS011;3733;47.994;8.820;2022-12-08T07:33:39;11.20;;;7.10;;
7383;SDS011;3733;47.994;8.820;2022-12-08T07:36:05;18.10;;;8.90;;
7383;SDS011;3733;47.994;8.820;2022-12-08T07:38:31;18.20;;;9.87;;
7383;SDS011;3733;47.994;8.820;2022-12-08T07:40:57;30.37;;;8.00;;
7383;SDS011;3733;47.994;8.820;2022-12-08T07:43:23;13.83;;;6.93;;
7383;SDS011;3733;47.994;8.820;2022-12-08T07:45:49;8.63;;;5.20;;
7383;SDS011;3733;47.994;8.820;2022-12-08T07:48:15;8.47;;;5.40;;
7383;SDS011;3733;47.994;8.820;2022-12-08T07:50:41;11.80;;;5.40;;
7383;SDS011;3733;47.994;8.820;2022-12-08T07:53:07;8.00;;;4.90;;
7383;SDS011;3733;47.994;8.820;2022-12-08T07:55:33;12.33;;;4.07;;
7383;SDS011;3733;47.994;8.820;2022-12-08T07:57:59;8.17;;;4.97;;
7383;SDS011;3733;47.994;8.820;2022-12-08T08:00:24;9.07;;;5.27;;
7383;SDS011;3733;47.994;8.820;2022-12-08T08:02:50;10.93;;;6.20;;
7383;SDS011;3733;47.994;8.820;2022-12-08T08:05:15;7.70;;;3.80;;
7383;SDS011;3733;47.994;8.820;2022-12-08T08:07:41;9.30;;;5.30;;
7383;SDS011;3733;47.994;8.820;2022-12-08T08:10:08;12.50;;;6.10;;
7383;SDS011;3733;47.994;8.820;2022-12-08T08:12:35;11.57;;;5.87;;
7383;SDS011;3733;47.994;8.820;2022-12-08T08:15:02;8.67;;;5.57;;
7383;SDS011;3733;47.994;8.820;2022-12-08T08:17:31;12.00;;;6.70;;
7383;SDS011;3733;47.994;8.820;2022-12-08T08:19:57;10.90;;;6.13;;
7383;SDS011;3733;47.994;8.820;2022-12-08T08:22:24;16.23;;;7.33;;
7383;SDS011;3733;47.994;8.820;2022-12-08T08:24:50;11.67;;;6.87;;
7383;SDS011;3733;47.994;8.820;2022-12-08T08:27:16;14.53;;;7.87;;
7383;SDS011;3733;47.994;8.820;2022-12-08T08:29:42;13.07;;;7.53;;
7383;SDS011;3733;47.994;8.820;2022-12-08T08:32:08;11.83;;;7.10;;
7383;SDS011;3733;47.994;8.820;2022-12-08T08:34:33;15.50;;;7.37;;
7383;SDS011;3733;47.994;8.820;2022-12-08T08:36:59;11.03;;;7.37;;
7383;SDS011;3733;47.994;8.820;2022-12-08T08:39:25;13.03;;;7.70;;
7383;SDS011;3733;47.994;8.820;2022-12-08T08:41:50;11.37;;;6.87;;
7383;SDS011;3733;47.994;8.820;2022-12-08T08:44:16;12.70;;;6.27;;
7383;SDS011;3733;47.994;8.820;2022-12-08T08:46:42;12.43;;;6.63;;
7383;SDS011;3733;47.994;8.820;2022-12-08T08:49:07;12.77;;;7.10;;
7383;SDS011;3733;47.994;8.820;2022-12-08T08:51:33;17.37;;;7.30;;
7383;SDS011;3733;47.994;8.820;2022-12-08T08:53:58;14.63;;;7.10;;
7383;SDS011;3733;47.994;8.820;2022-12-08T08:56:24;18.10;;;7.43;;
7383;SDS011;3733;47.994;8.820;2022-12-08T08:58:51;23.23;;;10.03;;
7383;SDS011;3733;47.994;8.820;2022-12-08T09:01:24;22.03;;;10.27;;
7383;SDS011;3733;47.994;8.820;2022-12-08T09:03:51;26.60;;;13.03;;
7383;SDS011;3733;47.994;8.820;2022-12-08T09:06:17;26.97;;;12.47;;
7383;SDS011;3733;47.994;8.820;2022-12-08T09:08:44;25.30;;;11.90;;
7383;SDS011;3733;47.994;8.820;2022-12-08T09:11:10;21.40;;;10.13;;
7383;SDS011;3733;47.994;8.820;2022-12-08T09:13:36;24.10;;;11.13;;
7383;SDS011;3733;47.994;8.820;2022-12-08T09:16:02;25.80;;;12.70;;
7383;SDS011;3733;47.994;8.820;2022-12-08T09:18:29;29.90;;;12.27;;
7383;SDS011;3733;47.994;8.820;2022-12-08T09:20:55;29.47;;;13.00;;
7383;SDS011;3733;47.994;8.820;2022-12-08T09:23:27;36.23;;;14.37;;
7383;SDS011;3733;47.994;8.820;2022-12-08T09:25:52;38.77;;;15.87;;
7383;SDS011;3733;47.994;8.820;2022-12-08T09:28:18;35.97;;;15.43;;
7383;SDS011;3733;47.994;8.820;2022-12-08T09:30:43;30.43;;;14.40;;
7383;SDS011;3733;47.994;8.820;2022-12-08T09:33:09;29.93;;;13.40;;
7383;SDS011;3733;47.994;8.820;2022-12-08T09:35:34;35.17;;;14.03;;
7383;SDS011;3733;47.994;8.820;2022-12-08T09:38:00;37.67;;;16.13;;
7383;SDS011;3733;47.994;8.820;2022-12-08T09:40:26;38.27;;;14.73;;
7383;SDS011;3733;47.994;8.820;2022-12-08T09:43:01;25.83;;;11.00;;
7383;SDS011;3733;47.994;8.820;2022-12-08T09:46:09;24.10;;;11.80;;
7383;SDS011;3733;47.994;8.820;2022-12-08T09:48:41;21.70;;;11.30;;
7383;SDS011;3733;47.994;8.820;2022-12-08T09:51:12;27.73;;;11.40;;
7383;SDS011;3733;47.994;8.820;2022-12-08T09:56:24;27.50;;;12.23;;
7383;SDS011;3733;47.994;8.820;2022-12-08T10:01:35;27.00;;;10.40;;
7383;SDS011;3733;47.994;8.820;2022-12-08T10:04:12;25.30;;;10.03;;
7383;SDS011;3733;47.994;8.820;2022-12-08T10:07:34;20.20;;;9.40;;
7383;SDS011;3733;47.994;8.820;2022-12-08T10:17:47;21.07;;;9.53;;
7383;SDS011;3733;47.994;8.820;2022-12-08T10:20:17;15.00;;;8.20;;
7383;SDS011;3733;47.994;8.820;2022-12-08T10:22:45;18.70;;;8.90;;
7383;SDS011;3733;47.994;8.820;2022-12-08T10:25:18;15.80;;;7.70;;
7383;SDS011;3733;47.994;8.820;2022-12-08T10:27:47;18.50;;;8.30;;
7383;SDS011;3733;47.994;8.820;2022-12-08T10:30:16;18.10;;;8.87;;
7383;SDS011;3733;47.994;8.820;2022-12-08T10:32:43;13.43;;;8.27;;
7383;SDS011;3733;47.994;8.820;2022-12-08T10:35:12;14.47;;;7.70;;
7383;SDS011;3733;47.994;8.820;2022-12-08T10:37:40;17.87;;;9.07;;
7383;SDS011;3733;47.994;8.820;2022-12-08T10:40:22;21.00;;;9.10;;
7383;SDS011;3733;47.994;8.820;2022-12-08T10:42:52;22.73;;;9.70;;
7383;SDS011;3733;47.994;8.820;2022-12-08T10:50:30;16.97;;;8.43;;
7383;SDS011;3733;47.994;8.820;2022-12-08T10:53:01;21.87;;;8.80;;
7383;SDS011;3733;47.994;8.820;2022-12-08T10:56:23;13.90;;;8.00;;
7383;SDS011;3733;47.994;8.820;2022-12-08T10:58:33;18.53;;;8.77;;
7383;SDS011;3733;47.994;8.820;2022-12-08T11:01:16;17.57;;;8.30;;
7383;SDS011;3733;47.994;8.820;2022-12-08T11:08:55;16.80;;;9.20;;
7383;SDS011;3733;47.994;8.820;2022-12-08T11:11:36;16.83;;;8.00;;
7383;SDS011;3733;47.994;8.820;2022-12-08T11:14:08;16.17;;;8.57;;
7383;SDS011;3733;47.994;8.820;2022-12-08T11:16:46;17.33;;;10.30;;
7383;SDS011;3733;47.994;8.820;2022-12-08T11:19:14;23.27;;;9.87;;
7383;SDS011;3733;47.994;8.820;2022-12-08T11:21:42;19.57;;;9.20;;
7383;SDS011;3733;47.994;8.820;2022-12-08T11:26:49;20.50;;;10.13;;
7383;SDS011;3733;47.994;8.820;2022-12-08T11:29:30;24.37;;;10.70;;
7383;SDS011;3733;47.994;8.820;2022-12-08T11:34:37;23.10;;;9.10;;
7383;SDS011;3733;47.994;8.820;2022-12-08T11:37:10;23.60;;;11.13;;
7383;SDS011;3733;47.994;8.820;2022-12-08T11:39:50;21.53;;;9.93;;
7383;SDS011;3733;47.994;8.820;2022-12-08T11:42:19;21.47;;;8.87;;
7383;SDS011;3733;47.994;8.820;2022-12-08T11:44:58;18.63;;;9.20;;
7383;SDS011;3733;47.994;8.820;2022-12-08T11:47:53;20.13;;;9.80;;
7383;SDS011;3733;47.994;8.820;2022-12-08T11:50:52;18.83;;;10.10;;
7383;SDS011;3733;47.994;8.820;2022-12-08T11:56:37;17.20;;;9.20;;
7383;SDS011;3733;47.994;8.820;2022-12-08T12:01:53;17.67;;;9.23;;
7383;SDS011;3733;47.994;8.820;2022-12-08T12:04:23;14.57;;;8.90;;
7383;SDS011;3733;47.994;8.820;2022-12-08T12:15:21;20.03;;;9.00;;
7383;SDS011;3733;47.994;8.820;2022-12-08T12:20:55;18.40;;;8.80;;
7383;SDS011;3733;47.994;8.820;2022-12-08T12:26:00;17.03;;;6.93;;
7383;SDS011;3733;47.994;8.820;2022-12-08T12:28:28;11.80;;;6.30;;
7383;SDS011;3733;47.994;8.820;2022-12-08T12:31:02;7.27;;;4.97;;
7383;SDS011;3733;47.994;8.820;2022-12-08T12:33:32;8.50;;;4.60;;
7383;SDS011;3733;47.994;8.820;2022-12-08T12:36:01;7.43;;;4.90;;
7383;SDS011;3733;47.994;8.820;2022-12-08T12:41:31;5.70;;;4.70;;
7383;SDS011;3733;47.994;8.820;2022-12-08T12:44:08;7.50;;;4.63;;
7383;SDS011;3733;47.994;8.820;2022-12-08T12:46:58;5.47;;;4.03;;
7383;SDS011;3733;47.994;8.820;2022-12-08T12:52:48;7.83;;;4.53;;
7383;SDS011;3733;47.994;8.820;2022-12-08T12:57:22;6.47;;;4.20;;
7383;SDS011;3733;47.994;8.820;2022-12-08T13:02:21;6.60;;;4.20;;
7383;SDS011;3733;47.994;8.820;2022-12-08T13:07:23;12.30;;;4.93;;
7383;SDS011;3733;47.994;8.820;2022-12-08T13:09:56;5.90;;;4.50;;
7383;SDS011;3733;47.994;8.820;2022-12-08T13:12:25;6.03;;;4.20;;
7383;SDS011;3733;47.994;8.820;2022-12-08T13:14:53;6.70;;;4.53;;
7383;SDS011;3733;47.994;8.820;2022-12-08T13:17:29;13.13;;;4.60;;
7383;SDS011;3733;47.994;8.820;2022-12-08T13:19:57;5.83;;;3.90;;
7383;SDS011;3733;47.994;8.820;2022-12-08T13:28:12;7.27;;;4.30;;
7383;SDS011;3733;47.994;8.820;2022-12-08T13:33:14;8.90;;;4.17;;
7383;SDS011;3733;47.994;8.820;2022-12-08T13:38:45;7.93;;;4.30;;
7383;SDS011;3733;47.994;8.820;2022-12-08T13:41:15;7.93;;;4.97;;
7383;SDS011;3733;47.994;8.820;2022-12-08T13:43:48;7.37;;;4.70;;
7383;SDS011;3733;47.994;8.820;2022-12-08T13:46:28;9.20;;;5.03;;
7383;SDS011;3733;47.994;8.820;2022-12-08T13:48:58;10.30;;;5.60;;
7383;SDS011;3733;47.994;8.820;2022-12-08T13:51:27;14.07;;;5.70;;
7383;SDS011;3733;47.994;8.820;2022-12-08T13:54:09;4.93;;;4.30;;
7383;SDS011;3733;47.994;8.820;2022-12-08T13:56:44;6.20;;;4.00;;
7383;SDS011;3733;47.994;8.820;2022-12-08T13:59:30;5.53;;;4.00;;
7383;SDS011;3733;47.994;8.820;2022-12-08T14:02:09;6.50;;;4.20;;
7383;SDS011;3733;47.994;8.820;2022-12-08T14:04:42;5.90;;;4.20;;
7383;SDS011;3733;47.994;8.820;2022-12-08T14:07:09;8.80;;;4.63;;
7383;SDS011;3733;47.994;8.820;2022-12-08T14:09:35;8.60;;;4.60;;
7383;SDS011;3733;47.994;8.820;2022-12-08T14:14:40;7.23;;;4.73;;
7383;SDS011;3733;47.994;8.820;2022-12-08T14:17:16;11.93;;;5.23;;
7383;SDS011;3733;47.994;8.820;2022-12-08T14:19:44;9.30;;;4.80;;
7383;SDS011;3733;47.994;8.820;2022-12-08T14:22:18;8.50;;;5.00;;
7383;SDS011;3733;47.994;8.820;2022-12-08T14:24:45;5.67;;;3.80;;
7383;SDS011;3733;47.994;8.820;2022-12-08T14:27:19;6.67;;;4.87;;
7383;SDS011;3733;47.994;8.820;2022-12-08T14:29:53;10.10;;;5.00;;
7383;SDS011;3733;47.994;8.820;2022-12-08T14:32:30;7.47;;;4.97;;
7383;SDS011;3733;47.994;8.820;2022-12-08T14:37:38;8.30;;;4.23;;
7383;SDS011;3733;47.994;8.820;2022-12-08T14:40:12;9.20;;;4.80;;
7383;SDS011;3733;47.994;8.820;2022-12-08T14:42:47;5.40;;;4.37;;
7383;SDS011;3733;47.994;8.820;2022-12-08T14:45:15;8.37;;;4.50;;
7383;SDS011;3733;47.994;8.820;2022-12-08T14:47:42;8.23;;;4.73;;
7383;SDS011;3733;47.994;8.820;2022-12-08T14:53:08;7.43;;;5.03;;
7383;SDS011;3733;47.994;8.820;2022-12-08T14:55:37;10.30;;;5.13;;
7383;SDS011;3733;47.994;8.820;2022-12-08T14:58:03;6.00;;;4.00;;
7383;SDS011;3733;47.994;8.820;2022-12-08T15:00:29;5.30;;;4.17;;
7383;SDS011;3733;47.994;8.820;2022-12-08T15:02:55;9.23;;;4.93;;
7383;SDS011;3733;47.994;8.820;2022-12-08T15:05:21;5.83;;;4.10;;
7383;SDS011;3733;47.994;8.820;2022-12-08T15:07:53;6.70;;;4.47;;
7383;SDS011;3733;47.994;8.820;2022-12-08T15:10:25;7.63;;;4.40;;
7383;SDS011;3733;47.994;8.820;2022-12-08T15:23:03;8.80;;;4.20;;
7383;SDS011;3733;47.994;8.820;2022-12-08T15:25:29;7.50;;;4.37;;
7383;SDS011;3733;47.994;8.820;2022-12-08T15:27:55;5.63;;;3.77;;
7383;SDS011;3733;47.994;8.820;2022-12-08T15:30:22;7.43;;;4.30;;
7383;SDS011;3733;47.994;8.820;2022-12-08T15:32:50;11.60;;;4.07;;
7383;SDS011;3733;47.994;8.820;2022-12-08T15:35:16;5.53;;;3.70;;
7383;SDS011;3733;47.994;8.820;2022-12-08T15:37:42;6.33;;;4.40;;
7383;SDS011;3733;47.994;8.820;2022-12-08T15:40:18;8.43;;;4.67;;
7383;SDS011;3733;47.994;8.820;2022-12-08T15:42:45;7.77;;;4.53;;
7383;SDS011;3733;47.994;8.820;2022-12-08T15:45:11;13.10;;;6.30;;
7383;SDS011;3733;47.994;8.820;2022-12-08T15:47:38;11.87;;;4.83;;
7383;SDS011;3733;47.994;8.820;2022-12-08T15:50:04;11.30;;;5.10;;
7383;SDS011;3733;47.994;8.820;2022-12-08T15:52:31;9.17;;;5.20;;
7383;SDS011;3733;47.994;8.820;2022-12-08T15:54:57;6.83;;;4.37;;
7383;SDS011;3733;47.994;8.820;2022-12-08T15:57:23;8.50;;;4.50;;
7383;SDS011;3733;47.994;8.820;2022-12-08T15:59:51;11.93;;;4.17;;
7383;SDS011;3733;47.994;8.820;2022-12-08T16:02:17;10.27;;;4.23;;
7383;SDS011;3733;47.994;8.820;2022-12-08T16:04:43;6.43;;;4.40;;
7383;SDS011;3733;47.994;8.820;2022-12-08T16:07:18;7.13;;;4.10;;
7383;SDS011;3733;47.994;8.820;2022-12-08T16:09:49;7.10;;;5.00;;
7383;SDS011;3733;47.994;8.820;2022-12-08T16:12:16;8.93;;;6.10;;
7383;SDS011;3733;47.994;8.820;2022-12-08T16:15:10;41.73;;;20.03;;
7383;SDS011;3733;47.994;8.820;2022-12-08T16:17:36;39.43;;;17.83;;
7383;SDS011;3733;47.994;8.820;2022-12-08T16:20:10;42.70;;;18.27;;
7383;SDS011;3733;47.994;8.820;2022-12-08T16:22:37;41.73;;;18.47;;
7383;SDS011;3733;47.994;8.820;2022-12-08T16:25:03;52.97;;;22.40;;
7383;SDS011;3733;47.994;8.820;2022-12-08T16:27:30;46.50;;;20.10;;
7383;SDS011;3733;47.994;8.820;2022-12-08T16:29:59;27.47;;;12.27;;
7383;SDS011;3733;47.994;8.820;2022-12-08T16:32:25;20.37;;;11.40;;
7383;SDS011;3733;47.994;8.820;2022-12-08T16:34:52;12.77;;;7.67;;
7383;SDS011;3733;47.994;8.820;2022-12-08T16:37:20;9.57;;;6.57;;
7383;SDS011;3733;47.994;8.820;2022-12-08T16:39:47;11.93;;;8.30;;
7383;SDS011;3733;47.994;8.820;2022-12-08T16:42:21;10.43;;;5.40;;
7383;SDS011;3733;47.994;8.820;2022-12-08T16:45:07;11.90;;;6.80;;
7383;SDS011;3733;47.994;8.820;2022-12-08T16:47:38;11.63;;;7.43;;
7383;SDS011;3733;47.994;8.820;2022-12-08T16:50:08;16.03;;;8.93;;
7383;SDS011;3733;47.994;8.820;2022-12-08T16:52:36;16.87;;;8.93;;
7383;SDS011;3733;47.994;8.820;2022-12-08T16:55:05;22.13;;;10.57;;
7383;SDS011;3733;47.994;8.820;2022-12-08T16:57:35;20.10;;;11.43;;
7383;SDS011;3733;47.994;8.820;2022-12-08T17:00:01;43.57;;;15.30;;
7383;SDS011;3733;47.994;8.820;2022-12-08T17:02:28;34.23;;;14.57;;
7383;SDS011;3733;47.994;8.820;2022-12-08T17:04:54;32.80;;;14.20;;
7383;SDS011;3733;47.994;8.820;2022-12-08T17:07:19;34.23;;;13.83;;
7383;SDS011;3733;47.994;8.820;2022-12-08T17:09:45;24.97;;;10.87;;
7383;SDS011;3733;47.994;8.820;2022-12-08T17:12:10;19.53;;;11.07;;
7383;SDS011;3733;47.994;8.820;2022-12-08T17:14:36;21.77;;;12.20;;